sensor_id;sensor_type;location;lat;lon;timestamp;P1;durP1;ratioP1;P2;durP2;ratioP2
76236;SDS011;65038;53.200;6.530;2023-11-19T00:00:10;77.03;;;22.75;;
76236;SDS011;65038;53.200;6.530;2023-11-19T00:02:37;77.10;;;22.15;;
76236;SDS011;65038;53.200;6.530;2023-11-19T00:05:04;62.55;;;21.38;;
76236;SDS011;65038;53.200;6.530;2023-11-19T00:07:33;73.95;;;21.75;;
76236;SDS011;65038;53.200;6.530;2023-11-19T00:09:59;72.63;;;20.85;;
76236;SDS011;65038;53.200;6.530;2023-11-19T00:12:29;70.30;;;20.88;;
76236;SDS011;65038;53.200;6.530;2023-11-19T00:14:55;57.42;;;19.33;;
76236;SDS011;65038;53.200;6.530;2023-11-19T00:17:21;59.20;;;18.25;;
76236;SDS011;65038;53.200;6.530;2023-11-19T00:19:47;60.25;;;19.27;;
76236;SDS011;65038;53.200;6.530;2023-11-19T00:22:14;55.22;;;17.27;;
76236;SDS011;65038;53.200;6.530;2023-11-19T00:24:40;51.35;;;17.05;;
76236;SDS011;65038;53.200;6.530;2023-11-19T00:27:06;52.53;;;15.88;;
76236;SDS011;65038;53.200;6.530;2023-11-19T00:29:33;53.35;;;14.70;;
76236;SDS011;65038;53.200;6.530;2023-11-19T00:31:59;46.80;;;14.85;;
76236;SDS011;65038;53.200;6.530;2023-11-19T00:34:25;45.05;;;13.50;;
76236;SDS011;65038;53.200;6.530;2023-11-19T00:36:51;53.15;;;14.48;;
76236;SDS011;65038;53.200;6.530;2023-11-19T00:39:17;50.85;;;12.52;;
76236;SDS011;65038;53.200;6.530;2023-11-19T00:41:43;49.40;;;12.90;;
76236;SDS011;65038;53.200;6.530;2023-11-19T00:44:11;40.53;;;11.45;;
76236;SDS011;65038;53.200;6.530;2023-11-19T00:46:37;38.20;;;11.00;;
76236;SDS011;65038;53.200;6.530;2023-11-19T00:49:03;36.95;;;10.45;;
76236;SDS011;65038;53.200;6.530;2023-11-19T00:51:29;48.63;;;10.73;;
76236;SDS011;65038;53.200;6.530;2023-11-19T00:53:56;42.65;;;10.63;;
76236;SDS011;65038;53.200;6.530;2023-11-19T00:56:22;49.08;;;10.80;;
76236;SDS011;65038;53.200;6.530;2023-11-19T00:58:49;41.28;;;9.68;;
76236;SDS011;65038;53.200;6.530;2023-11-19T01:01:15;43.25;;;9.23;;
76236;SDS011;65038;53.200;6.530;2023-11-19T01:03:41;40.85;;;8.20;;
76236;SDS011;65038;53.200;6.530;2023-11-19T01:06:07;39.08;;;8.10;;
76236;SDS011;65038;53.200;6.530;2023-11-19T01:08:33;37.53;;;8.25;;
76236;SDS011;65038;53.200;6.530;2023-11-19T01:11:01;38.30;;;6.93;;
76236;SDS011;65038;53.200;6.530;2023-11-19T01:13:27;40.83;;;7.57;;
76236;SDS011;65038;53.200;6.530;2023-11-19T01:15:53;39.00;;;6.90;;
76236;SDS011;65038;53.200;6.530;2023-11-19T01:18:21;34.70;;;6.65;;
76236;SDS011;65038;53.200;6.530;2023-11-19T01:20:47;37.47;;;7.10;;
76236;SDS011;65038;53.200;6.530;2023-11-19T01:23:13;35.42;;;6.72;;
76236;SDS011;65038;53.200;6.530;2023-11-19T01:25:39;38.47;;;6.80;;
76236;SDS011;65038;53.200;6.530;2023-11-19T01:28:05;37.33;;;6.45;;
76236;SDS011;65038;53.200;6.530;2023-11-19T01:30:31;37.13;;;6.68;;
76236;SDS011;65038;53.200;6.530;2023-11-19T01:32:57;36.20;;;5.90;;
76236;SDS011;65038;53.200;6.530;2023-11-19T01:35:23;36.28;;;6.22;;
76236;SDS011;65038;53.200;6.530;2023-11-19T01:37:49;39.15;;;6.28;;
76236;SDS011;65038;53.200;6.530;2023-11-19T01:40:19;34.60;;;5.68;;
76236;SDS011;65038;53.200;6.530;2023-11-19T01:42:45;33.13;;;5.93;;
76236;SDS011;65038;53.200;6.530;2023-11-19T01:45:15;38.47;;;6.25;;
76236;SDS011;65038;53.200;6.530;2023-11-19T01:50:13;32.25;;;5.78;;
76236;SDS011;65038;53.200;6.530;2023-11-19T01:52:40;36.17;;;6.15;;
76236;SDS011;65038;53.200;6.530;2023-11-19T01:55:06;32.88;;;6.15;;
76236;SDS011;65038;53.200;6.530;2023-11-19T01:57:33;41.90;;;6.40;;
76236;SDS011;65038;53.200;6.530;2023-11-19T01:59:59;31.20;;;5.75;;
76236;SDS011;65038;53.200;6.530;2023-11-19T02:02:25;32.08;;;6.00;;
76236;SDS011;65038;53.200;6.530;2023-11-19T02:04:51;34.45;;;5.80;;
76236;SDS011;65038;53.200;6.530;2023-11-19T02:07:18;35.88;;;5.78;;
76236;SDS011;65038;53.200;6.530;2023-11-19T02:09:45;39.00;;;5.88;;
76236;SDS011;65038;53.200;6.530;2023-11-19T02:12:11;38.35;;;5.78;;
76236;SDS011;65038;53.200;6.530;2023-11-19T02:14:37;34.53;;;5.70;;
76236;SDS011;65038;53.200;6.530;2023-11-19T02:17:04;39.63;;;6.13;;
76236;SDS011;65038;53.200;6.530;2023-11-19T02:19:30;39.28;;;5.85;;
76236;SDS011;65038;53.200;6.530;2023-11-19T02:21:56;38.08;;;5.82;;
76236;SDS011;65038;53.200;6.530;2023-11-19T02:24:22;36.35;;;6.28;;
76236;SDS011;65038;53.200;6.530;2023-11-19T02:29:49;41.88;;;6.45;;
76236;SDS011;65038;53.200;6.530;2023-11-19T02:32:16;35.13;;;5.25;;
76236;SDS011;65038;53.200;6.530;2023-11-19T02:34:42;45.40;;;6.05;;
76236;SDS011;65038;53.200;6.530;2023-11-19T02:37:08;35.65;;;6.10;;
76236;SDS011;65038;53.200;6.530;2023-11-19T02:39:35;33.78;;;5.85;;
76236;SDS011;65038;53.200;6.530;2023-11-19T02:42:02;33.80;;;6.30;;
76236;SDS011;65038;53.200;6.530;2023-11-19T02:44:28;31.10;;;5.97;;
76236;SDS011;65038;53.200;6.530;2023-11-19T02:46:55;42.85;;;6.25;;
76236;SDS011;65038;53.200;6.530;2023-11-19T02:49:24;32.97;;;5.80;;
76236;SDS011;65038;53.200;6.530;2023-11-19T02:51:50;29.63;;;6.10;;
76236;SDS011;65038;53.200;6.530;2023-11-19T02:54:16;35.28;;;5.63;;
76236;SDS011;65038;53.200;6.530;2023-11-19T02:56:43;35.38;;;5.72;;
76236;SDS011;65038;53.200;6.530;2023-11-19T02:59:09;28.25;;;5.40;;
76236;SDS011;65038;53.200;6.530;2023-11-19T03:01:51;34.63;;;5.88;;
76236;SDS011;65038;53.200;6.530;2023-11-19T03:04:18;33.00;;;5.32;;
76236;SDS011;65038;53.200;6.530;2023-11-19T03:06:48;28.27;;;5.10;;
76236;SDS011;65038;53.200;6.530;2023-11-19T03:09:14;29.42;;;4.70;;
76236;SDS011;65038;53.200;6.530;2023-11-19T03:11:40;30.45;;;5.60;;
76236;SDS011;65038;53.200;6.530;2023-11-19T03:14:06;32.17;;;5.63;;
76236;SDS011;65038;53.200;6.530;2023-11-19T03:16:32;29.38;;;5.05;;
76236;SDS011;65038;53.200;6.530;2023-11-19T03:18:58;30.98;;;5.07;;
76236;SDS011;65038;53.200;6.530;2023-11-19T03:21:28;37.20;;;5.75;;
76236;SDS011;65038;53.200;6.530;2023-11-19T03:23:54;32.67;;;5.13;;
76236;SDS011;65038;53.200;6.530;2023-11-19T03:26:21;33.47;;;5.53;;
76236;SDS011;65038;53.200;6.530;2023-11-19T03:28:47;36.03;;;5.97;;
76236;SDS011;65038;53.200;6.530;2023-11-19T03:31:13;37.63;;;5.60;;
76236;SDS011;65038;53.200;6.530;2023-11-19T03:33:39;36.78;;;5.85;;
76236;SDS011;65038;53.200;6.530;2023-11-19T03:36:05;35.03;;;5.30;;
76236;SDS011;65038;53.200;6.530;2023-11-19T03:38:32;36.85;;;5.93;;
76236;SDS011;65038;53.200;6.530;2023-11-19T03:40:58;33.10;;;5.25;;
76236;SDS011;65038;53.200;6.530;2023-11-19T03:43:24;33.05;;;5.30;;
76236;SDS011;65038;53.200;6.530;2023-11-19T03:45:50;39.35;;;5.85;;
76236;SDS011;65038;53.200;6.530;2023-11-19T03:48:16;28.40;;;5.18;;
76236;SDS011;65038;53.200;6.530;2023-11-19T03:50:42;29.15;;;5.25;;
76236;SDS011;65038;53.200;6.530;2023-11-19T03:53:08;31.90;;;5.65;;
76236;SDS011;65038;53.200;6.530;2023-11-19T03:55:34;31.90;;;5.32;;
76236;SDS011;65038;53.200;6.530;2023-11-19T03:58:00;27.80;;;4.97;;
76236;SDS011;65038;53.200;6.530;2023-11-19T04:00:26;36.47;;;5.70;;
76236;SDS011;65038;53.200;6.530;2023-11-19T04:02:52;40.17;;;5.50;;
76236;SDS011;65038;53.200;6.530;2023-11-19T04:05:18;39.10;;;5.32;;
76236;SDS011;65038;53.200;6.530;2023-11-19T04:07:44;34.08;;;5.93;;
76236;SDS011;65038;53.200;6.530;2023-11-19T04:10:10;34.08;;;5.50;;
76236;SDS011;65038;53.200;6.530;2023-11-19T04:12:36;30.88;;;5.20;;
76236;SDS011;65038;53.200;6.530;2023-11-19T04:15:03;33.67;;;5.00;;
76236;SDS011;65038;53.200;6.530;2023-11-19T04:17:29;29.48;;;5.00;;
76236;SDS011;65038;53.200;6.530;2023-11-19T04:19:55;37.83;;;5.00;;
76236;SDS011;65038;53.200;6.530;2023-11-19T04:22:21;31.90;;;5.25;;
76236;SDS011;65038;53.200;6.530;2023-11-19T04:24:47;34.80;;;5.05;;
76236;SDS011;65038;53.200;6.530;2023-11-19T04:27:13;35.25;;;5.10;;
76236;SDS011;65038;53.200;6.530;2023-11-19T04:29:39;36.63;;;5.93;;
76236;SDS011;65038;53.200;6.530;2023-11-19T04:32:05;28.70;;;5.18;;
76236;SDS011;65038;53.200;6.530;2023-11-19T04:34:32;31.40;;;5.00;;
76236;SDS011;65038;53.200;6.530;2023-11-19T04:36:58;41.78;;;5.93;;
76236;SDS011;65038;53.200;6.530;2023-11-19T04:39:28;35.75;;;5.57;;
76236;SDS011;65038;53.200;6.530;2023-11-19T04:41:54;38.17;;;6.47;;
76236;SDS011;65038;53.200;6.530;2023-11-19T04:44:20;33.58;;;6.22;;
76236;SDS011;65038;53.200;6.530;2023-11-19T04:46:47;37.35;;;5.55;;
76236;SDS011;65038;53.200;6.530;2023-11-19T04:49:13;40.22;;;6.22;;
76236;SDS011;65038;53.200;6.530;2023-11-19T04:51:43;39.38;;;5.78;;
76236;SDS011;65038;53.200;6.530;2023-11-19T04:54:09;43.50;;;5.95;;
76236;SDS011;65038;53.200;6.530;2023-11-19T04:56:36;32.53;;;5.18;;
76236;SDS011;65038;53.200;6.530;2023-11-19T04:59:05;32.40;;;5.60;;
76236;SDS011;65038;53.200;6.530;2023-11-19T05:01:32;32.65;;;5.82;;
76236;SDS011;65038;53.200;6.530;2023-11-19T05:03:58;42.33;;;5.65;;
76236;SDS011;65038;53.200;6.530;2023-11-19T05:06:27;41.42;;;6.75;;
76236;SDS011;65038;53.200;6.530;2023-11-19T05:08:54;41.42;;;6.35;;
76236;SDS011;65038;53.200;6.530;2023-11-19T05:11:20;40.35;;;5.93;;
76236;SDS011;65038;53.200;6.530;2023-11-19T05:13:46;35.75;;;5.90;;
76236;SDS011;65038;53.200;6.530;2023-11-19T05:16:13;39.08;;;6.13;;
76236;SDS011;65038;53.200;6.530;2023-11-19T05:18:39;37.00;;;6.13;;
76236;SDS011;65038;53.200;6.530;2023-11-19T05:21:06;39.38;;;5.78;;
76236;SDS011;65038;53.200;6.530;2023-11-19T05:23:32;34.40;;;5.43;;
76236;SDS011;65038;53.200;6.530;2023-11-19T05:26:01;30.20;;;5.40;;
76236;SDS011;65038;53.200;6.530;2023-11-19T05:28:27;43.13;;;6.40;;
76236;SDS011;65038;53.200;6.530;2023-11-19T05:30:53;36.95;;;6.07;;
76236;SDS011;65038;53.200;6.530;2023-11-19T05:33:20;36.65;;;5.82;;
76236;SDS011;65038;53.200;6.530;2023-11-19T05:35:46;43.65;;;6.90;;
76236;SDS011;65038;53.200;6.530;2023-11-19T05:38:12;39.28;;;6.03;;
76236;SDS011;65038;53.200;6.530;2023-11-19T05:40:39;40.95;;;6.60;;
76236;SDS011;65038;53.200;6.530;2023-11-19T05:43:05;36.30;;;6.13;;
76236;SDS011;65038;53.200;6.530;2023-11-19T05:45:31;41.10;;;6.40;;
76236;SDS011;65038;53.200;6.530;2023-11-19T05:47:57;32.22;;;6.07;;
76236;SDS011;65038;53.200;6.530;2023-11-19T05:50:23;35.83;;;5.57;;
76236;SDS011;65038;53.200;6.530;2023-11-19T05:52:49;38.00;;;5.97;;
76236;SDS011;65038;53.200;6.530;2023-11-19T05:55:18;38.72;;;5.45;;
76236;SDS011;65038;53.200;6.530;2023-11-19T05:57:44;36.30;;;6.03;;
76236;SDS011;65038;53.200;6.530;2023-11-19T06:00:10;41.75;;;6.03;;
76236;SDS011;65038;53.200;6.530;2023-11-19T06:02:38;39.30;;;6.55;;
76236;SDS011;65038;53.200;6.530;2023-11-19T06:05:04;43.60;;;6.50;;
76236;SDS011;65038;53.200;6.530;2023-11-19T06:07:31;39.15;;;7.20;;
76236;SDS011;65038;53.200;6.530;2023-11-19T06:09:58;37.42;;;6.30;;
76236;SDS011;65038;53.200;6.530;2023-11-19T06:12:24;42.22;;;6.78;;
76236;SDS011;65038;53.200;6.530;2023-11-19T06:14:50;36.22;;;6.55;;
76236;SDS011;65038;53.200;6.530;2023-11-19T06:17:16;39.10;;;6.10;;
76236;SDS011;65038;53.200;6.530;2023-11-19T06:19:42;30.70;;;5.43;;
76236;SDS011;65038;53.200;6.530;2023-11-19T06:22:08;39.22;;;6.07;;
76236;SDS011;65038;53.200;6.530;2023-11-19T06:24:34;39.70;;;6.80;;
76236;SDS011;65038;53.200;6.530;2023-11-19T06:27:00;33.45;;;5.80;;
76236;SDS011;65038;53.200;6.530;2023-11-19T06:29:26;35.20;;;5.45;;
76236;SDS011;65038;53.200;6.530;2023-11-19T06:31:52;37.03;;;6.05;;
76236;SDS011;65038;53.200;6.530;2023-11-19T06:34:18;42.25;;;6.55;;
76236;SDS011;65038;53.200;6.530;2023-11-19T06:36:44;32.10;;;5.05;;
76236;SDS011;65038;53.200;6.530;2023-11-19T06:39:10;36.05;;;6.22;;
76236;SDS011;65038;53.200;6.530;2023-11-19T06:41:36;41.45;;;6.28;;
76236;SDS011;65038;53.200;6.530;2023-11-19T06:44:04;38.92;;;5.80;;
76236;SDS011;65038;53.200;6.530;2023-11-19T06:46:30;38.45;;;6.22;;
76236;SDS011;65038;53.200;6.530;2023-11-19T06:48:56;32.58;;;5.50;;
76236;SDS011;65038;53.200;6.530;2023-11-19T06:51:23;41.85;;;6.35;;
76236;SDS011;65038;53.200;6.530;2023-11-19T06:53:52;41.60;;;6.63;;
76236;SDS011;65038;53.200;6.530;2023-11-19T06:56:22;42.47;;;6.22;;
76236;SDS011;65038;53.200;6.530;2023-11-19T06:58:48;36.85;;;5.90;;
76236;SDS011;65038;53.200;6.530;2023-11-19T07:01:15;33.58;;;5.57;;
76236;SDS011;65038;53.200;6.530;2023-11-19T07:03:41;33.75;;;5.18;;
76236;SDS011;65038;53.200;6.530;2023-11-19T07:06:07;33.70;;;6.68;;
76236;SDS011;65038;53.200;6.530;2023-11-19T07:08:33;39.45;;;6.18;;
76236;SDS011;65038;53.200;6.530;2023-11-19T07:10:59;40.70;;;5.93;;
76236;SDS011;65038;53.200;6.530;2023-11-19T07:13:25;36.78;;;5.82;;
76236;SDS011;65038;53.200;6.530;2023-11-19T07:15:53;31.70;;;6.00;;
76236;SDS011;65038;53.200;6.530;2023-11-19T07:18:19;36.30;;;6.75;;
76236;SDS011;65038;53.200;6.530;2023-11-19T07:20:47;34.15;;;5.85;;
76236;SDS011;65038;53.200;6.530;2023-11-19T07:23:13;41.75;;;6.25;;
76236;SDS011;65038;53.200;6.530;2023-11-19T07:25:41;40.88;;;6.30;;
76236;SDS011;65038;53.200;6.530;2023-11-19T07:28:08;44.60;;;6.47;;
76236;SDS011;65038;53.200;6.530;2023-11-19T07:30:35;43.65;;;6.38;;
76236;SDS011;65038;53.200;6.530;2023-11-19T07:33:01;35.70;;;5.70;;
76236;SDS011;65038;53.200;6.530;2023-11-19T07:35:29;37.40;;;5.68;;
76236;SDS011;65038;53.200;6.530;2023-11-19T07:37:56;44.03;;;5.68;;
76236;SDS011;65038;53.200;6.530;2023-11-19T07:40:22;35.92;;;6.10;;
76236;SDS011;65038;53.200;6.530;2023-11-19T07:42:49;41.22;;;6.00;;
76236;SDS011;65038;53.200;6.530;2023-11-19T07:45:15;33.95;;;6.20;;
76236;SDS011;65038;53.200;6.530;2023-11-19T07:47:41;41.25;;;5.95;;
76236;SDS011;65038;53.200;6.530;2023-11-19T07:50:09;38.30;;;6.45;;
76236;SDS011;65038;53.200;6.530;2023-11-19T07:52:36;29.05;;;5.75;;
76236;SDS011;65038;53.200;6.530;2023-11-19T07:55:03;33.25;;;5.22;;
76236;SDS011;65038;53.200;6.530;2023-11-19T07:57:30;41.92;;;5.97;;
76236;SDS011;65038;53.200;6.530;2023-11-19T07:59:59;30.52;;;5.78;;
76236;SDS011;65038;53.200;6.530;2023-11-19T08:02:26;37.25;;;5.72;;
76236;SDS011;65038;53.200;6.530;2023-11-19T08:04:53;38.35;;;6.18;;
76236;SDS011;65038;53.200;6.530;2023-11-19T08:07:20;38.97;;;5.80;;
76236;SDS011;65038;53.200;6.530;2023-11-19T08:09:47;34.50;;;5.57;;
76236;SDS011;65038;53.200;6.530;2023-11-19T08:12:13;37.47;;;6.10;;
76236;SDS011;65038;53.200;6.530;2023-11-19T08:14:40;37.28;;;5.68;;
76236;SDS011;65038;53.200;6.530;2023-11-19T08:17:06;34.33;;;5.60;;
76236;SDS011;65038;53.200;6.530;2023-11-19T08:19:32;37.00;;;5.68;;
76236;SDS011;65038;53.200;6.530;2023-11-19T08:21:58;36.85;;;6.00;;
76236;SDS011;65038;53.200;6.530;2023-11-19T08:24:24;36.05;;;5.95;;
76236;SDS011;65038;53.200;6.530;2023-11-19T08:26:50;38.05;;;5.50;;
76236;SDS011;65038;53.200;6.530;2023-11-19T08:29:16;40.03;;;7.60;;
76236;SDS011;65038;53.200;6.530;2023-11-19T08:31:42;35.28;;;5.57;;
76236;SDS011;65038;53.200;6.530;2023-11-19T08:34:08;41.10;;;6.22;;
76236;SDS011;65038;53.200;6.530;2023-11-19T08:36:35;37.78;;;6.20;;
76236;SDS011;65038;53.200;6.530;2023-11-19T08:39:01;39.10;;;5.78;;
76236;SDS011;65038;53.200;6.530;2023-11-19T08:41:28;33.22;;;5.70;;
76236;SDS011;65038;53.200;6.530;2023-11-19T08:43:54;43.55;;;6.38;;
76236;SDS011;65038;53.200;6.530;2023-11-19T08:46:20;36.55;;;5.78;;
76236;SDS011;65038;53.200;6.530;2023-11-19T08:48:46;30.85;;;5.40;;
76236;SDS011;65038;53.200;6.530;2023-11-19T08:51:12;37.05;;;5.97;;
76236;SDS011;65038;53.200;6.530;2023-11-19T08:53:38;33.53;;;6.00;;
76236;SDS011;65038;53.200;6.530;2023-11-19T08:56:04;44.90;;;5.93;;
76236;SDS011;65038;53.200;6.530;2023-11-19T08:58:30;36.78;;;5.78;;
76236;SDS011;65038;53.200;6.530;2023-11-19T09:00:57;35.10;;;5.53;;
76236;SDS011;65038;53.200;6.530;2023-11-19T09:03:23;38.25;;;5.75;;
76236;SDS011;65038;53.200;6.530;2023-11-19T09:05:51;35.33;;;5.97;;
76236;SDS011;65038;53.200;6.530;2023-11-19T09:08:17;35.95;;;5.32;;
76236;SDS011;65038;53.200;6.530;2023-11-19T09:10:43;42.40;;;6.00;;
76236;SDS011;65038;53.200;6.530;2023-11-19T09:13:09;34.53;;;5.85;;
76236;SDS011;65038;53.200;6.530;2023-11-19T09:15:35;42.17;;;5.40;;
76236;SDS011;65038;53.200;6.530;2023-11-19T09:18:01;37.42;;;5.22;;
76236;SDS011;65038;53.200;6.530;2023-11-19T09:20:27;32.42;;;5.28;;
76236;SDS011;65038;53.200;6.530;2023-11-19T09:22:57;29.67;;;5.97;;
76236;SDS011;65038;53.200;6.530;2023-11-19T09:25:23;38.67;;;5.57;;
76236;SDS011;65038;53.200;6.530;2023-11-19T09:27:49;40.95;;;5.85;;
76236;SDS011;65038;53.200;6.530;2023-11-19T09:30:15;41.10;;;6.65;;
76236;SDS011;65038;53.200;6.530;2023-11-19T09:32:41;36.13;;;5.68;;
76236;SDS011;65038;53.200;6.530;2023-11-19T09:35:07;42.70;;;5.65;;
76236;SDS011;65038;53.200;6.530;2023-11-19T09:37:33;38.85;;;6.22;;
76236;SDS011;65038;53.200;6.530;2023-11-19T09:39:59;37.13;;;5.32;;
76236;SDS011;65038;53.200;6.530;2023-11-19T09:42:25;30.33;;;5.50;;
76236;SDS011;65038;53.200;6.530;2023-11-19T09:44:52;40.25;;;5.63;;
76236;SDS011;65038;53.200;6.530;2023-11-19T09:47:19;37.60;;;6.07;;
76236;SDS011;65038;53.200;6.530;2023-11-19T09:49:46;44.10;;;6.05;;
76236;SDS011;65038;53.200;6.530;2023-11-19T09:52:12;34.67;;;5.55;;
76236;SDS011;65038;53.200;6.530;2023-11-19T09:54:38;40.30;;;6.18;;
76236;SDS011;65038;53.200;6.530;2023-11-19T09:57:05;34.67;;;6.22;;
76236;SDS011;65038;53.200;6.530;2023-11-19T09:59:34;36.38;;;6.25;;
76236;SDS011;65038;53.200;6.530;2023-11-19T10:02:00;37.97;;;5.32;;
76236;SDS011;65038;53.200;6.530;2023-11-19T10:04:27;29.98;;;4.82;;
76236;SDS011;65038;53.200;6.530;2023-11-19T10:06:55;32.15;;;5.40;;
76236;SDS011;65038;53.200;6.530;2023-11-19T10:09:22;37.30;;;5.68;;
76236;SDS011;65038;53.200;6.530;2023-11-19T10:11:48;36.50;;;5.78;;
76236;SDS011;65038;53.200;6.530;2023-11-19T10:14:14;37.25;;;5.55;;
76236;SDS011;65038;53.200;6.530;2023-11-19T10:16:41;34.03;;;5.78;;
76236;SDS011;65038;53.200;6.530;2023-11-19T10:19:07;31.30;;;4.97;;
76236;SDS011;65038;53.200;6.530;2023-11-19T10:21:34;33.25;;;5.53;;
76236;SDS011;65038;53.200;6.530;2023-11-19T10:24:00;33.00;;;5.68;;
76236;SDS011;65038;53.200;6.530;2023-11-19T10:26:27;28.98;;;5.28;;
76236;SDS011;65038;53.200;6.530;2023-11-19T10:28:53;30.50;;;5.25;;
76236;SDS011;65038;53.200;6.530;2023-11-19T10:31:19;32.67;;;5.00;;
76236;SDS011;65038;53.200;6.530;2023-11-19T10:33:50;28.65;;;4.72;;
76236;SDS011;65038;53.200;6.530;2023-11-19T10:36:16;32.15;;;5.05;;
76236;SDS011;65038;53.200;6.530;2023-11-19T10:38:52;34.53;;;5.60;;
76236;SDS011;65038;53.200;6.530;2023-11-19T10:41:28;32.25;;;5.47;;
76236;SDS011;65038;53.200;6.530;2023-11-19T10:43:55;37.40;;;5.63;;
76236;SDS011;65038;53.200;6.530;2023-11-19T10:46:21;33.40;;;5.35;;
76236;SDS011;65038;53.200;6.530;2023-11-19T10:48:48;31.33;;;5.55;;
76236;SDS011;65038;53.200;6.530;2023-11-19T10:51:16;30.52;;;5.15;;
76236;SDS011;65038;53.200;6.530;2023-11-19T10:53:47;36.70;;;5.25;;
76236;SDS011;65038;53.200;6.530;2023-11-19T10:56:16;36.53;;;5.72;;
76236;SDS011;65038;53.200;6.530;2023-11-19T10:58:44;39.35;;;5.68;;
76236;SDS011;65038;53.200;6.530;2023-11-19T11:01:18;28.65;;;4.95;;
76236;SDS011;65038;53.200;6.530;2023-11-19T11:03:46;29.42;;;5.55;;
76236;SDS011;65038;53.200;6.530;2023-11-19T11:06:12;33.40;;;4.80;;
76236;SDS011;65038;53.200;6.530;2023-11-19T11:08:38;29.27;;;5.57;;
76236;SDS011;65038;53.200;6.530;2023-11-19T11:11:05;30.98;;;5.00;;
76236;SDS011;65038;53.200;6.530;2023-11-19T11:13:31;28.52;;;4.93;;
76236;SDS011;65038;53.200;6.530;2023-11-19T11:15:59;26.33;;;5.38;;
76236;SDS011;65038;53.200;6.530;2023-11-19T11:18:25;33.97;;;5.72;;
76236;SDS011;65038;53.200;6.530;2023-11-19T11:21:14;32.80;;;5.45;;
76236;SDS011;65038;53.200;6.530;2023-11-19T11:28:37;27.90;;;5.45;;
76236;SDS011;65038;53.200;6.530;2023-11-19T11:33:40;30.98;;;4.88;;
76236;SDS011;65038;53.200;6.530;2023-11-19T11:36:11;34.17;;;5.20;;
76236;SDS011;65038;53.200;6.530;2023-11-19T11:38:39;34.97;;;4.60;;
76236;SDS011;65038;53.200;6.530;2023-11-19T11:43:45;27.77;;;4.57;;
76236;SDS011;65038;53.200;6.530;2023-11-19T11:47:12;33.50;;;5.18;;
76236;SDS011;65038;53.200;6.530;2023-11-19T11:49:07;25.65;;;4.40;;
76236;SDS011;65038;53.200;6.530;2023-11-19T11:52:15;28.83;;;4.72;;
76236;SDS011;65038;53.200;6.530;2023-11-19T11:59:36;30.92;;;5.30;;
76236;SDS011;65038;53.200;6.530;2023-11-19T12:02:03;34.15;;;4.82;;
76236;SDS011;65038;53.200;6.530;2023-11-19T12:04:29;32.00;;;6.10;;
76236;SDS011;65038;53.200;6.530;2023-11-19T12:09:31;33.72;;;5.38;;
76236;SDS011;65038;53.200;6.530;2023-11-19T12:12:07;31.35;;;5.00;;
76236;SDS011;65038;53.200;6.530;2023-11-19T12:17:03;32.40;;;4.90;;
76236;SDS011;65038;53.200;6.530;2023-11-19T12:19:29;29.67;;;4.93;;
76236;SDS011;65038;53.200;6.530;2023-11-19T12:21:55;28.00;;;4.47;;
76236;SDS011;65038;53.200;6.530;2023-11-19T12:24:24;30.92;;;5.03;;
76236;SDS011;65038;53.200;6.530;2023-11-19T12:26:50;29.95;;;4.55;;
76236;SDS011;65038;53.200;6.530;2023-11-19T12:29:19;31.35;;;4.75;;
76236;SDS011;65038;53.200;6.530;2023-11-19T12:31:53;29.38;;;5.05;;
76236;SDS011;65038;53.200;6.530;2023-11-19T12:34:19;31.92;;;5.45;;
76236;SDS011;65038;53.200;6.530;2023-11-19T12:36:48;29.65;;;4.95;;
76236;SDS011;65038;53.200;6.530;2023-11-19T12:39:14;26.40;;;4.50;;
76236;SDS011;65038;53.200;6.530;2023-11-19T12:41:48;28.50;;;4.65;;
76236;SDS011;65038;53.200;6.530;2023-11-19T12:44:14;27.45;;;4.90;;
76236;SDS011;65038;53.200;6.530;2023-11-19T12:46:40;31.23;;;4.75;;
76236;SDS011;65038;53.200;6.530;2023-11-19T12:49:06;30.95;;;4.40;;
76236;SDS011;65038;53.200;6.530;2023-11-19T12:51:32;22.23;;;4.18;;
76236;SDS011;65038;53.200;6.530;2023-11-19T12:53:58;27.33;;;4.55;;
76236;SDS011;65038;53.200;6.530;2023-11-19T12:56:24;25.85;;;4.05;;
76236;SDS011;65038;53.200;6.530;2023-11-19T12:58:51;28.08;;;5.28;;
76236;SDS011;65038;53.200;6.530;2023-11-19T13:01:17;25.58;;;4.43;;
76236;SDS011;65038;53.200;6.530;2023-11-19T13:03:44;26.70;;;4.38;;
76236;SDS011;65038;53.200;6.530;2023-11-19T13:06:11;25.95;;;4.80;;
76236;SDS011;65038;53.200;6.530;2023-11-19T13:08:38;23.13;;;4.30;;
76236;SDS011;65038;53.200;6.530;2023-11-19T13:11:04;27.60;;;4.82;;
76236;SDS011;65038;53.200;6.530;2023-11-19T13:13:31;23.88;;;4.32;;
76236;SDS011;65038;53.200;6.530;2023-11-19T13:16:03;28.17;;;5.18;;
76236;SDS011;65038;53.200;6.530;2023-11-19T13:18:30;25.80;;;4.18;;
76236;SDS011;65038;53.200;6.530;2023-11-19T13:20:56;22.63;;;4.30;;
76236;SDS011;65038;53.200;6.530;2023-11-19T13:23:22;29.58;;;4.47;;
76236;SDS011;65038;53.200;6.530;2023-11-19T13:25:48;29.65;;;4.85;;
76236;SDS011;65038;53.200;6.530;2023-11-19T13:28:14;26.05;;;4.82;;
76236;SDS011;65038;53.200;6.530;2023-11-19T13:30:40;26.50;;;4.07;;
76236;SDS011;65038;53.200;6.530;2023-11-19T13:33:06;21.95;;;4.10;;
76236;SDS011;65038;53.200;6.530;2023-11-19T13:35:32;26.70;;;4.50;;
76236;SDS011;65038;53.200;6.530;2023-11-19T13:37:59;27.35;;;4.50;;
76236;SDS011;65038;53.200;6.530;2023-11-19T13:40:25;32.83;;;5.05;;
76236;SDS011;65038;53.200;6.530;2023-11-19T13:42:51;27.05;;;4.32;;
76236;SDS011;65038;53.200;6.530;2023-11-19T13:45:17;24.02;;;4.53;;
76236;SDS011;65038;53.200;6.530;2023-11-19T13:47:45;23.17;;;3.97;;
76236;SDS011;65038;53.200;6.530;2023-11-19T13:50:12;25.70;;;4.85;;
76236;SDS011;65038;53.200;6.530;2023-11-19T13:52:39;24.38;;;4.45;;
76236;SDS011;65038;53.200;6.530;2023-11-19T13:55:06;22.77;;;4.20;;
76236;SDS011;65038;53.200;6.530;2023-11-19T13:57:39;26.02;;;4.20;;
76236;SDS011;65038;53.200;6.530;2023-11-19T14:00:06;25.83;;;4.30;;
76236;SDS011;65038;53.200;6.530;2023-11-19T14:02:35;29.20;;;4.68;;
76236;SDS011;65038;53.200;6.530;2023-11-19T14:05:02;26.88;;;3.97;;
76236;SDS011;65038;53.200;6.530;2023-11-19T14:07:28;28.20;;;4.38;;
76236;SDS011;65038;53.200;6.530;2023-11-19T14:09:54;23.13;;;4.28;;
76236;SDS011;65038;53.200;6.530;2023-11-19T14:12:20;28.17;;;4.15;;
76236;SDS011;65038;53.200;6.530;2023-11-19T14:14:46;23.63;;;4.07;;
76236;SDS011;65038;53.200;6.530;2023-11-19T14:17:12;28.70;;;4.60;;
76236;SDS011;65038;53.200;6.530;2023-11-19T14:19:40;27.52;;;4.80;;
76236;SDS011;65038;53.200;6.530;2023-11-19T14:22:06;26.10;;;4.32;;
76236;SDS011;65038;53.200;6.530;2023-11-19T14:24:33;27.17;;;4.50;;
76236;SDS011;65038;53.200;6.530;2023-11-19T14:26:59;21.98;;;4.25;;
76236;SDS011;65038;53.200;6.530;2023-11-19T14:29:25;26.33;;;4.25;;
76236;SDS011;65038;53.200;6.530;2023-11-19T14:31:52;26.25;;;4.60;;
76236;SDS011;65038;53.200;6.530;2023-11-19T14:34:19;22.23;;;4.63;;
76236;SDS011;65038;53.200;6.530;2023-11-19T14:36:45;28.08;;;4.43;;
76236;SDS011;65038;53.200;6.530;2023-11-19T14:39:12;27.25;;;4.55;;
76236;SDS011;65038;53.200;6.530;2023-11-19T14:41:38;23.85;;;4.60;;
76236;SDS011;65038;53.200;6.530;2023-11-19T14:44:04;26.67;;;4.50;;
76236;SDS011;65038;53.200;6.530;2023-11-19T14:46:30;28.52;;;4.70;;
76236;SDS011;65038;53.200;6.530;2023-11-19T14:48:56;29.60;;;4.72;;
76236;SDS011;65038;53.200;6.530;2023-11-19T14:51:23;19.90;;;3.92;;
76236;SDS011;65038;53.200;6.530;2023-11-19T14:53:49;27.73;;;4.45;;
76236;SDS011;65038;53.200;6.530;2023-11-19T14:56:15;24.40;;;4.20;;